Time;durP1;ratioP1;P1;durP2;ratioP2;P2;SDS_P1;SDS_P2;PMS_P1;PMS_P2;Temp;Humidity;BMP_temperature;BMP_pressure;BME280_temperature;BME280_humidity;BME280_pressure;Samples;Min_cycle;Max_cycle;Signal;HPM_P1;HPM_P2
2023/04/23 00:01:15;;;;;;;;;;;;;;;7.67;82.29;100990.66;5110312;28;19924;-87
2023/04/23 00:03:42;;;;;;;;;;;;;;;7.67;82.28;100995.16;5103845;28;20011;-85
2023/04/23 00:06:09;;;;;;;;;;;;;;;7.55;82.84;100989.06;5103324;28;19966;-85
2023/04/23 00:08:38;;;;;;;;;;;;;;;7.48;82.87;100990.56;5122210;28;19935;-85
2023/04/23 00:11:04;;;;;;;;;;;;;;;7.52;82.79;100992.00;5097036;28;20495;-88
2023/04/23 00:13:29;;;;;;;;;;;;;;;7.47;82.81;100988.88;5114101;28;19973;-88
2023/04/23 00:15:56;;;;;;;;;;;;;;;7.35;83.30;100990.78;5088526;28;20681;-87
2023/04/23 00:18:22;;;;;;;;;;;;;;;7.32;83.38;100988.38;5112015;28;20287;-87
2023/04/23 00:20:48;;;;;;;;;;;;;;;7.39;83.25;100993.03;5095352;28;19916;-88
2023/04/23 00:23:13;;;;;;;;;;;;;;;7.47;83.09;100983.50;5109215;28;19939;-87
2023/04/23 00:25:47;;;;;;;;;;;;;;;7.47;83.71;100986.19;5094165;28;19912;-87
2023/04/23 00:28:13;;;;;;;;;;;;;;;7.48;83.29;100985.22;5105700;28;20004;-87
2023/04/23 00:30:41;;;;;;;;;;;;;;;7.40;83.58;100984.06;5107794;28;19942;-87
2023/04/23 00:33:07;;;;;;;;;;;;;;;7.36;84.10;100990.66;5091718;28;19916;-87
2023/04/23 00:35:32;;;;;;;;;;;;;;;7.44;83.51;100989.13;5108728;28;19989;-87
2023/04/23 00:37:58;;;;;;;;;;;;;;;7.38;83.21;100994.03;5088088;28;19920;-87
2023/04/23 00:40:24;;;;;;;;;;;;;;;7.40;83.48;100992.09;5101132;28;20340;-86
2023/04/23 00:45:53;;;;;;;;;;;;;;;7.46;83.20;100988.03;5093918;28;20427;-87
2023/04/23 00:48:19;;;;;;;;;;;;;;;7.49;83.21;100984.22;5080199;28;19991;-88
2023/04/23 00:50:45;;;;;;;;;;;;;;;7.42;83.55;100983.06;5116706;28;20388;-88
2023/04/23 00:53:10;;;;;;;;;;;;;;;7.31;84.61;100986.69;5106967;28;19983;-84
2023/04/23 00:55:37;;;;;;;;;;;;;;;7.38;84.73;100978.00;5100323;28;19915;-86
2023/04/23 00:58:08;;;;;;;;;;;;;;;7.37;85.12;100991.50;5099181;28;19916;-87
2023/04/23 01:00:35;;;;;;;;;;;;;;;7.35;85.82;100988.09;5128330;28;19916;-86
2023/04/23 01:03:00;;;;;;;;;;;;;;;7.31;86.19;100986.69;5134474;28;19926;-89
2023/04/23 01:05:29;;;;;;;;;;;;;;;7.30;86.01;100991.16;5092831;28;19920;-86
2023/04/23 01:07:56;;;;;;;;;;;;;;;7.21;86.39;100991.97;5115400;28;19922;-88
2023/04/23 01:10:21;;;;;;;;;;;;;;;7.09;87.09;100987.66;5077567;28;19915;-87
2023/04/23 01:12:47;;;;;;;;;;;;;;;7.02;87.87;100992.66;5094528;28;19923;-88
2023/04/23 01:15:14;;;;;;;;;;;;;;;7.14;87.59;100985.44;5097003;28;20008;-88
2023/04/23 01:17:41;;;;;;;;;;;;;;;7.22;86.91;100985.63;5082676;28;19916;-86
2023/04/23 01:20:10;;;;;;;;;;;;;;;7.19;87.18;100981.41;5100127;28;19938;-88
2023/04/23 01:22:38;;;;;;;;;;;;;;;7.19;87.34;100977.88;5078035;28;19990;-87
2023/04/23 01:25:07;;;;;;;;;;;;;;;7.25;86.98;100982.69;5112426;28;20023;-86
2023/04/23 01:27:35;;;;;;;;;;;;;;;7.23;86.94;100978.47;5077593;28;20330;-87
2023/04/23 01:30:04;;;;;;;;;;;;;;;7.14;87.48;100985.44;5115090;28;19961;-88
2023/04/23 01:32:30;;;;;;;;;;;;;;;7.06;88.00;100982.56;5114327;28;19927;-86
2023/04/23 01:34:56;;;;;;;;;;;;;;;6.93;89.26;100982.75;5078979;28;19916;-88
2023/04/23 01:37:31;;;;;;;;;;;;;;;6.96;88.94;100988.69;5099139;28;19916;-88
2023/04/23 01:40:02;;;;;;;;;;;;;;;6.97;88.93;100989.53;5122771;28;20002;-88
2023/04/23 01:42:30;;;;;;;;;;;;;;;6.90;89.08;100983.84;5122474;28;19916;-88
2023/04/23 01:44:56;;;;;;;;;;;;;;;7.03;88.54;100988.19;5090233;28;20003;-88
2023/04/23 01:47:22;;;;;;;;;;;;;;;7.04;88.14;100990.72;5099421;28;19929;-90
2023/04/23 01:49:47;;;;;;;;;;;;;;;6.98;88.32;100988.59;5080136;28;20024;-89
2023/04/23 01:52:13;;;;;;;;;;;;;;;6.88;88.69;100991.19;5112847;28;19924;-87
2023/04/23 01:54:39;;;;;;;;;;;;;;;6.86;89.10;100993.13;5092420;28;20347;-89
2023/04/23 01:57:06;;;;;;;;;;;;;;;6.88;88.78;100990.31;5086909;28;20081;-88
2023/04/23 01:59:31;;;;;;;;;;;;;;;6.91;88.50;100990.91;5095042;28;19923;-87
2023/04/23 02:01:57;;;;;;;;;;;;;;;6.90;88.44;100986.53;5076387;28;19915;-88
2023/04/23 02:04:22;;;;;;;;;;;;;;;6.95;88.26;100991.50;5104776;28;19920;-89
2023/04/23 02:06:50;;;;;;;;;;;;;;;7.03;87.68;100993.53;5093208;28;19932;-88
2023/04/23 02:09:18;;;;;;;;;;;;;;;7.00;87.19;100991.97;5075923;28;20303;-88
2023/04/23 02:11:43;;;;;;;;;;;;;;;7.00;87.50;100993.78;5093605;28;19920;-88
2023/04/23 02:14:10;;;;;;;;;;;;;;;6.95;87.03;100997.72;5084713;28;19943;-88
2023/04/23 02:16:36;;;;;;;;;;;;;;;6.88;87.71;101006.34;5107387;28;19916;-88
2023/04/23 02:19:01;;;;;;;;;;;;;;;6.93;87.35;100998.78;5079610;28;19928;-91
2023/04/23 02:21:28;;;;;;;;;;;;;;;6.84;87.54;100996.91;5083351;28;20332;-87
2023/04/23 02:23:54;;;;;;;;;;;;;;;6.82;87.78;101013.06;5106536;28;19919;-87
2023/04/23 02:26:21;;;;;;;;;;;;;;;6.90;87.40;100989.22;5094117;28;19999;-88
2023/04/23 02:28:48;;;;;;;;;;;;;;;6.96;86.74;100996.72;5088343;28;19920;-89
2023/04/23 02:31:15;;;;;;;;;;;;;;;7.00;86.43;100997.31;5072604;28;19916;-88
2023/04/23 02:33:42;;;;;;;;;;;;;;;6.89;86.54;101002.72;5083545;28;19921;-89
2023/04/23 02:36:11;;;;;;;;;;;;;;;6.85;86.63;101004.78;5089491;28;19920;-90
2023/04/23 02:38:40;;;;;;;;;;;;;;;6.83;86.57;101001.38;5090593;28;20256;-89
2023/04/23 02:41:06;;;;;;;;;;;;;;;6.82;86.64;101007.72;5089487;28;19963;-88
2023/04/23 02:43:31;;;;;;;;;;;;;;;6.71;86.67;101005.09;5086694;28;19970;-87
2023/04/23 02:45:58;;;;;;;;;;;;;;;6.72;86.93;101002.31;5069189;28;19920;-88
2023/04/23 02:48:26;;;;;;;;;;;;;;;6.69;86.94;101007.03;5055962;28;20011;-88
2023/04/23 02:50:51;;;;;;;;;;;;;;;6.67;86.90;101007.19;5090678;28;19908;-86
2023/04/23 02:53:17;;;;;;;;;;;;;;;6.53;87.71;101002.09;5076149;28;20065;-87
2023/04/23 02:55:42;;;;;;;;;;;;;;;6.59;87.64;101003.44;5088350;28;19916;-88
2023/04/23 02:58:09;;;;;;;;;;;;;;;6.46;88.22;101001.78;5089281;28;19927;-86
2023/04/23 03:00:35;;;;;;;;;;;;;;;6.40;88.63;100996.94;5089254;28;20238;-89
2023/04/23 03:03:00;;;;;;;;;;;;;;;6.37;89.09;101002.53;5073221;28;19923;-87
2023/04/23 03:05:26;;;;;;;;;;;;;;;6.51;88.20;100999.59;5073540;28;19932;-87
2023/04/23 03:07:52;;;;;;;;;;;;;;;6.55;87.72;101006.38;5069302;28;19979;-85
2023/04/23 03:10:19;;;;;;;;;;;;;;;6.51;87.88;101004.09;5069052;28;19920;-87
2023/04/23 03:12:44;;;;;;;;;;;;;;;6.50;87.51;101011.22;5051541;28;19962;-86
2023/04/23 03:15:10;;;;;;;;;;;;;;;6.43;87.68;101010.03;5081038;28;19959;-87
2023/04/23 03:17:37;;;;;;;;;;;;;;;6.48;87.76;101007.84;5070430;28;19981;-88
2023/04/23 03:20:02;;;;;;;;;;;;;;;6.50;87.34;100999.69;5067902;28;19927;-86
2023/04/23 03:22:28;;;;;;;;;;;;;;;6.56;86.99;101007.22;5051959;28;20011;-87
2023/04/23 03:24:54;;;;;;;;;;;;;;;6.63;86.62;101004.91;5068238;28;19963;-87
2023/04/23 03:27:21;;;;;;;;;;;;;;;6.72;85.89;101004.13;5072146;28;19928;-86
2023/04/23 03:29:46;;;;;;;;;;;;;;;6.75;85.54;101001.19;5105866;28;20344;-86
2023/04/23 03:32:17;;;;;;;;;;;;;;;6.76;85.38;101017.09;5091832;28;19967;-87
2023/04/23 03:34:43;;;;;;;;;;;;;;;6.71;84.98;100999.75;5107041;28;19927;-85
2023/04/23 03:37:10;;;;;;;;;;;;;;;6.74;84.86;101015.53;5093377;28;19916;-86
2023/04/23 03:39:35;;;;;;;;;;;;;;;6.74;84.85;101010.16;5071091;28;19936;-86
2023/04/23 03:42:01;;;;;;;;;;;;;;;6.82;84.14;101012.22;5070994;28;19916;-86
2023/04/23 03:44:27;;;;;;;;;;;;;;;6.78;84.32;101011.63;5079640;28;19927;-87
2023/04/23 03:46:54;;;;;;;;;;;;;;;6.94;84.12;101022.72;5070886;28;19920;-87
2023/04/23 03:49:19;;;;;;;;;;;;;;;7.00;83.93;101020.50;5071264;28;20002;-88
2023/04/23 03:51:47;;;;;;;;;;;;;;;6.97;84.74;101018.94;5072229;28;19977;-93
2023/04/23 03:54:15;;;;;;;;;;;;;;;6.97;85.32;101021.63;5090943;28;20007;-88
2023/04/23 03:56:40;;;;;;;;;;;;;;;6.86;86.23;101025.22;5113824;28;19924;-87
2023/04/23 03:59:08;;;;;;;;;;;;;;;6.92;86.53;101030.03;5096359;28;19916;-87
2023/04/23 04:01:35;;;;;;;;;;;;;;;7.02;86.13;101032.78;5102299;28;19920;-86
2023/04/23 04:04:01;;;;;;;;;;;;;;;7.14;85.91;101038.91;5118652;28;19916;-86
2023/04/23 04:06:26;;;;;;;;;;;;;;;7.19;85.84;101036.72;5086159;28;19984;-89
2023/04/23 04:08:52;;;;;;;;;;;;;;;7.13;85.67;101042.56;5088724;28;19924;-88
2023/04/23 04:14:21;;;;;;;;;;;;;;;7.30;84.77;101050.00;5094132;28;19983;-87
2023/04/23 04:16:49;;;;;;;;;;;;;;;7.23;85.04;101051.50;5062419;28;20313;-88
2023/04/23 04:19:15;;;;;;;;;;;;;;;7.28;85.29;101054.66;5079707;28;19923;-88
2023/04/23 04:21:40;;;;;;;;;;;;;;;7.38;84.78;101054.72;5066884;28;20024;-88
2023/04/23 04:24:07;;;;;;;;;;;;;;;7.52;84.42;101050.88;5099199;28;19916;-88
2023/04/23 04:26:39;;;;;;;;;;;;;;;7.61;83.64;101048.25;5116188;28;19931;-88
2023/04/23 04:29:05;;;;;;;;;;;;;;;7.59;83.82;101054.72;5086180;28;20254;-87
2023/04/23 04:31:31;;;;;;;;;;;;;;;7.63;83.81;101066.00;5088563;28;19904;-87
2023/04/23 04:34:06;;;;;;;;;;;;;;;7.66;84.03;101057.72;5093578;28;19945;-87
2023/04/23 04:36:31;;;;;;;;;;;;;;;7.78;83.67;101054.81;5074225;28;20285;-88
2023/04/23 04:39:02;;;;;;;;;;;;;;;7.73;83.88;101061.56;5091317;28;20042;-88
2023/04/23 04:41:28;;;;;;;;;;;;;;;7.79;83.52;101066.34;5090401;28;20304;-87
2023/04/23 04:43:54;;;;;;;;;;;;;;;7.91;83.40;101064.44;5090888;28;19931;-88
2023/04/23 04:46:20;;;;;;;;;;;;;;;8.17;82.55;101060.34;5091053;28;19919;-89
2023/04/23 04:49:01;;;;;;;;;;;;;;;8.08;82.28;101061.16;5083985;28;20355;-89
2023/04/23 04:51:29;;;;;;;;;;;;;;;8.27;82.11;101059.53;5095588;28;19963;-88
2023/04/23 04:53:55;;;;;;;;;;;;;;;8.39;81.87;101071.84;5075312;28;19954;-89
2023/04/23 04:56:22;;;;;;;;;;;;;;;8.90;80.23;101073.50;5088528;28;19932;-91
2023/04/23 04:58:50;;;;;;;;;;;;;;;9.60;77.15;101071.50;5085306;28;19948;-87
2023/04/23 05:01:17;;;;;;;;;;;;;;;10.20;74.56;101071.13;5087143;28;19992;-87
2023/04/23 05:03:42;;;;;;;;;;;;;;;10.83;73.45;101069.53;5084322;28;19924;-85
2023/04/23 05:06:08;;;;;;;;;;;;;;;11.36;70.35;101068.69;5080834;28;21643;-88
2023/04/23 05:08:33;;;;;;;;;;;;;;;11.80;68.70;101065.97;5081726;28;20030;-85
2023/04/23 05:10:59;;;;;;;;;;;;;;;12.14;66.10;101065.16;5064400;28;19920;-88
2023/04/23 05:13:26;;;;;;;;;;;;;;;12.57;64.96;101061.47;5068578;28;19939;-89
2023/04/23 05:15:53;;;;;;;;;;;;;;;12.97;63.13;101062.53;5078179;28;19946;-86
2023/04/23 05:18:23;;;;;;;;;;;;;;;13.30;61.67;101066.13;5071056;28;20011;-86
2023/04/23 05:20:49;;;;;;;;;;;;;;;13.56;60.38;101072.38;5092175;28;20088;-86
2023/04/23 05:23:17;;;;;;;;;;;;;;;13.67;60.04;101072.88;5082353;28;19928;-90
2023/04/23 05:25:43;;;;;;;;;;;;;;;13.67;59.62;101069.31;5071814;28;19924;-89
2023/04/23 05:28:08;;;;;;;;;;;;;;;13.97;59.64;101066.88;5083988;28;19939;-89
2023/04/23 05:30:34;;;;;;;;;;;;;;;14.18;58.20;101061.75;5098196;28;19938;-88
2023/04/23 05:33:00;;;;;;;;;;;;;;;14.24;57.73;101074.56;5102806;28;20413;-87
2023/04/23 05:35:30;;;;;;;;;;;;;;;14.45;57.27;101073.13;5079129;28;19973;-87
2023/04/23 05:37:56;;;;;;;;;;;;;;;14.47;56.75;101066.53;5091596;28;19992;-89
2023/04/23 05:40:21;;;;;;;;;;;;;;;14.75;55.61;101068.78;5104155;28;19920;-86
2023/04/23 05:42:48;;;;;;;;;;;;;;;14.74;55.74;101059.78;5090609;28;19924;-88
2023/04/23 05:45:14;;;;;;;;;;;;;;;15.05;55.29;101063.50;5071788;28;19995;-86
2023/04/23 05:47:41;;;;;;;;;;;;;;;15.18;54.43;101069.16;5093634;28;20348;-87
2023/04/23 05:50:10;;;;;;;;;;;;;;;15.41;53.99;101067.28;5083766;28;19916;-88
2023/04/23 05:52:36;;;;;;;;;;;;;;;15.73;53.40;101070.75;5068810;28;19949;-89
2023/04/23 05:55:03;;;;;;;;;;;;;;;16.05;51.94;101065.97;5092228;28;19980;-89
2023/04/23 05:57:28;;;;;;;;;;;;;;;16.20;51.76;101072.25;5084354;28;20022;-92
2023/04/23 05:59:54;;;;;;;;;;;;;;;16.31;51.60;101070.91;5083150;28;19963;-87
2023/04/23 06:02:19;;;;;;;;;;;;;;;16.64;50.75;101063.19;5094929;28;19920;-88
2023/04/23 06:07:47;;;;;;;;;;;;;;;16.80;49.86;101064.03;5109372;28;19964;-87
2023/04/23 06:10:32;;;;;;;;;;;;;;;17.25;48.40;101064.69;5105276;28;19916;-89
2023/04/23 06:12:57;;;;;;;;;;;;;;;17.54;47.33;101065.56;5109848;28;19928;-90
2023/04/23 06:15:25;;;;;;;;;;;;;;;17.81;46.64;101067.47;5061096;28;20026;-90
2023/04/23 06:17:54;;;;;;;;;;;;;;;17.98;45.96;101067.16;5093058;28;20275;-88
2023/04/23 06:23:14;;;;;;;;;;;;;;;18.63;45.14;101065.78;5092733;28;19924;-88
2023/04/23 06:25:42;;;;;;;;;;;;;;;19.00;44.23;101060.91;5087912;28;19924;-89
2023/04/23 06:28:09;;;;;;;;;;;;;;;19.19;43.18;101065.53;5096523;28;20290;-87
2023/04/23 06:30:35;;;;;;;;;;;;;;;19.60;42.77;101072.69;5092513;28;20018;-88
2023/04/23 06:33:00;;;;;;;;;;;;;;;19.84;41.57;101069.56;5109912;28;20276;-88
2023/04/23 06:35:30;;;;;;;;;;;;;;;20.10;41.58;101064.03;5110909;27;19919;-85
2023/04/23 06:37:58;;;;;;;;;;;;;;;20.44;40.53;101068.34;5111206;28;19926;-85
2023/04/23 06:40:24;;;;;;;;;;;;;;;20.66;40.36;101057.13;5067425;28;19919;-87
2023/04/23 06:42:50;;;;;;;;;;;;;;;20.99;39.12;101064.28;5087124;28;19924;-91
2023/04/23 06:45:16;;;;;;;;;;;;;;;21.02;38.77;101072.03;5077627;28;19946;-89
2023/04/23 06:47:41;;;;;;;;;;;;;;;21.40;38.99;101066.56;5084063;28;19923;-88
2023/04/23 06:53:09;;;;;;;;;;;;;;;21.84;37.75;101072.88;5105420;28;20325;-86
2023/04/23 06:55:35;;;;;;;;;;;;;;;22.03;37.15;101079.25;5116187;28;19927;-87
2023/04/23 06:58:06;;;;;;;;;;;;;;;22.36;37.16;101072.59;5074700;28;19920;-90
2023/04/23 07:00:32;;;;;;;;;;;;;;;22.62;35.70;101068.66;5081448;28;19916;-86
2023/04/23 07:02:58;;;;;;;;;;;;;;;22.93;35.16;101073.09;5082593;28;19973;-88
2023/04/23 07:05:25;;;;;;;;;;;;;;;23.24;34.58;101073.91;5062497;28;19924;-84
2023/04/23 07:07:50;;;;;;;;;;;;;;;23.32;33.66;101079.06;5111173;28;20364;-86
2023/04/23 07:10:17;;;;;;;;;;;;;;;23.62;33.26;101074.56;5109660;28;19966;-86
2023/04/23 07:12:42;;;;;;;;;;;;;;;23.71;33.13;101082.19;5109650;28;19952;-87
2023/04/23 07:15:10;;;;;;;;;;;;;;;23.63;33.12;101073.50;5075313;28;19928;-87
2023/04/23 07:17:35;;;;;;;;;;;;;;;23.70;33.12;101080.53;5093961;28;19916;-88
2023/04/23 07:20:05;;;;;;;;;;;;;;;24.08;31.86;101073.75;5074139;28;19969;-89
2023/04/23 07:22:32;;;;;;;;;;;;;;;24.20;31.94;101080.06;5076675;28;19923;-90
2023/04/23 07:34:28;;;;;;;;;;;;;;;25.06;29.19;101071.91;5095034;28;19948;-90
2023/04/23 07:36:55;;;;;;;;;;;;;;;24.61;30.08;101072.72;5072062;28;20034;-91
2023/04/23 07:39:40;;;;;;;;;;;;;;;24.54;28.48;101077.53;5073464;28;19996;-91
2023/04/23 07:42:05;;;;;;;;;;;;;;;23.59;29.53;101071.22;5087534;28;19931;-92
2023/04/23 07:44:33;;;;;;;;;;;;;;;23.46;29.85;101068.72;5091046;28;19938;-90
2023/04/23 07:47:00;;;;;;;;;;;;;;;23.52;29.44;101077.91;5052956;28;19970;-89
2023/04/23 07:49:27;;;;;;;;;;;;;;;23.60;29.58;101069.34;5090411;28;20435;-89
2023/04/23 07:51:52;;;;;;;;;;;;;;;24.15;29.52;101066.22;5089057;28;19969;-88
2023/04/23 07:54:18;;;;;;;;;;;;;;;24.72;28.59;101064.66;5074147;28;19975;-85
2023/04/23 07:56:44;;;;;;;;;;;;;;;25.41;27.85;101062.63;5096478;28;19965;-91
2023/04/23 08:02:15;;;;;;;;;;;;;;;25.31;28.65;101067.97;5107780;28;19931;-88
2023/04/23 08:04:46;;;;;;;;;;;;;;;25.97;27.57;101070.97;5088609;28;19912;-95
2023/04/23 08:07:21;;;;;;;;;;;;;;;25.73;26.47;101073.06;5099900;28;20001;-92
2023/04/23 08:09:49;;;;;;;;;;;;;;;25.39;27.25;101051.03;5084663;28;19964;-95
2023/04/23 08:12:16;;;;;;;;;;;;;;;24.53;29.03;101067.59;5100737;28;19920;-94
2023/04/23 08:14:49;;;;;;;;;;;;;;;25.56;27.72;101063.97;5078565;28;19923;-94
2023/04/23 08:17:24;;;;;;;;;;;;;;;25.09;27.51;101067.00;5057396;28;19924;-95
2023/04/23 08:22:54;;;;;;;;;;;;;;;26.61;25.47;101067.66;5089537;28;19939;-94
2023/04/23 08:25:25;;;;;;;;;;;;;;;26.97;25.12;101062.53;5077694;28;20088;-95
2023/04/23 08:31:25;;;;;;;;;;;;;;;;;;;;;
2023/04/23 08:37:09;;;;;;;;;;;;;;;27.22;23.92;101053.69;5036033;28;20072;-93
2023/04/23 08:43:15;;;;;;;;;;;;;;;;;;;;;
2023/04/23 08:45:50;;;;;;;;;;;;;;;26.94;24.60;101038.22;5026248;28;19980;-93
2023/04/23 08:48:53;;;;;;;;;;;;;;;28.72;23.20;101039.66;5030037;28;20063;-89
2023/04/23 09:00:12;;;;;;;;;;;;;;;29.66;21.17;101035.56;5064925;22;19925;-91
2023/04/23 09:02:38;;;;;;;;;;;;;;;30.26;20.50;101041.25;5053623;28;19925;-89
2023/04/23 09:05:04;;;;;;;;;;;;;;;31.15;20.32;101036.88;5022115;28;19939;-93
2023/04/23 09:07:29;;;;;;;;;;;;;;;31.76;19.60;101036.31;5053950;28;19921;-88
2023/04/23 09:09:55;;;;;;;;;;;;;;;31.81;19.51;101041.81;5027651;28;19929;-89
2023/04/23 09:12:21;;;;;;;;;;;;;;;31.80;18.64;101047.69;5034527;28;19930;-92
2023/04/23 09:14:48;;;;;;;;;;;;;;;32.95;18.64;101045.66;5014205;28;20541;-90
2023/04/23 09:17:14;;;;;;;;;;;;;;;31.87;18.79;101037.03;5030450;28;19925;-91
2023/04/23 09:19:41;;;;;;;;;;;;;;;30.65;19.66;101050.78;5033001;28;19939;-90
2023/04/23 09:22:08;;;;;;;;;;;;;;;30.69;19.67;101043.53;5020505;28;19933;-92
2023/04/23 09:24:34;;;;;;;;;;;;;;;29.54;20.84;101043.31;5028674;28;19960;-89
2023/04/23 09:27:00;;;;;;;;;;;;;;;30.05;20.68;101043.25;5053405;28;19909;-90
2023/04/23 09:29:25;;;;;;;;;;;;;;;30.09;20.43;101044.34;5017190;28;19977;-92
2023/04/23 09:31:56;;;;;;;;;;;;;;;27.99;22.24;101046.00;5030058;28;19920;-91
2023/04/23 09:34:27;;;;;;;;;;;;;;;25.82;24.51;101054.16;5054899;28;19933;-93
2023/04/23 09:36:53;;;;;;;;;;;;;;;25.25;25.82;101044.19;5037901;28;19909;-94
2023/04/23 09:39:20;;;;;;;;;;;;;;;24.68;26.88;101052.47;5015059;28;19979;-90
2023/04/23 09:41:45;;;;;;;;;;;;;;;24.36;27.14;101055.66;5033825;28;19921;-93
2023/04/23 09:44:21;;;;;;;;;;;;;;;23.22;28.85;101056.84;5026604;28;19924;-90
2023/04/23 09:46:46;;;;;;;;;;;;;;;23.22;29.39;101043.13;5023690;28;19931;-93
2023/04/23 09:49:11;;;;;;;;;;;;;;;23.56;29.41;101047.00;5019017;28;20011;-91
2023/04/23 09:51:39;;;;;;;;;;;;;;;24.11;28.10;101045.78;5015858;28;19962;-91
2023/04/23 09:54:25;;;;;;;;;;;;;;;25.46;26.54;101039.88;5017069;28;19924;-91
2023/04/23 09:57:07;;;;;;;;;;;;;;;28.11;23.28;101032.78;5021021;28;19917;-92
2023/04/23 09:59:34;;;;;;;;;;;;;;;27.71;23.42;101027.84;5006817;28;19929;-96
2023/04/23 10:02:08;;;;;;;;;;;;;;;27.94;22.75;101027.44;5026981;28;19921;-93
2023/04/23 10:04:36;;;;;;;;;;;;;;;28.39;22.31;101038.97;5009648;28;19928;-96
2023/04/23 10:07:12;;;;;;;;;;;;;;;28.29;22.52;101027.88;5019255;28;20010;-96
2023/04/23 10:09:54;;;;;;;;;;;;;;;29.43;21.24;101025.91;5038830;28;19917;-96
2023/04/23 10:12:21;;;;;;;;;;;;;;;28.69;21.72;101021.69;4998544;28;20119;-94
2023/04/23 10:14:48;;;;;;;;;;;;;;;26.67;23.61;101025.28;5013634;28;19929;-91
2023/04/23 10:17:16;;;;;;;;;;;;;;;25.47;25.39;101027.75;5015180;28;20447;-93
2023/04/23 10:19:44;;;;;;;;;;;;;;;25.36;26.01;101021.28;5011198;28;20346;-92
2023/04/23 10:22:40;;;;;;;;;;;;;;;24.83;26.80;101028.03;5002588;28;19929;-95
2023/04/23 10:25:10;;;;;;;;;;;;;;;23.77;27.98;101018.16;4957396;29;20061;-91
2023/04/23 10:27:37;;;;;;;;;;;;;;;23.25;29.01;101022.63;4918924;29;19926;-94
2023/04/23 10:30:05;;;;;;;;;;;;;;;22.36;29.96;101023.28;4987246;28;19921;-93
2023/04/23 10:32:36;;;;;;;;;;;;;;;21.90;31.56;101019.16;5029465;28;19921;-89
2023/04/23 10:35:02;;;;;;;;;;;;;;;21.41;32.41;101023.63;5004963;28;19925;-91
2023/04/23 10:37:33;;;;;;;;;;;;;;;20.98;33.39;101021.63;5030341;28;19921;-91
2023/04/23 10:40:07;;;;;;;;;;;;;;;20.64;34.18;101018.25;5011548;28;19925;-88
2023/04/23 10:42:33;;;;;;;;;;;;;;;19.82;35.61;101020.66;5009092;28;19921;-89
2023/04/23 10:44:59;;;;;;;;;;;;;;;19.52;36.58;101009.34;5012984;28;19929;-86
2023/04/23 10:47:24;;;;;;;;;;;;;;;19.23;37.23;101011.44;5001805;28;20317;-89
2023/04/23 10:49:52;;;;;;;;;;;;;;;19.37;37.32;101012.28;5011389;28;19917;-91
2023/04/23 10:52:34;;;;;;;;;;;;;;;19.51;36.63;101008.50;4993180;28;20369;-91
2023/04/23 10:55:00;;;;;;;;;;;;;;;19.80;36.08;101009.09;5033719;28;19939;-87
2023/04/23 11:00:22;;;;;;;;;;;;;;;22.29;31.77;101012.41;5041995;28;19925;-89
2023/04/23 11:02:47;;;;;;;;;;;;;;;23.18;30.05;101006.31;5036257;28;19952;-91
2023/04/23 11:05:14;;;;;;;;;;;;;;;23.95;29.57;101005.34;5025272;28;19926;-89
2023/04/23 11:07:41;;;;;;;;;;;;;;;23.47;29.46;101000.97;5009307;28;19928;-92
2023/04/23 11:10:13;;;;;;;;;;;;;;;23.05;30.04;101003.78;4996308;28;19929;-94
2023/04/23 11:12:41;;;;;;;;;;;;;;;23.72;29.59;101000.72;5019391;28;19948;-95
2023/04/23 11:15:14;;;;;;;;;;;;;;;23.48;29.43;100997.13;5012379;28;19933;-92
2023/04/23 11:20:40;;;;;;;;;;;;;;;24.08;28.57;100994.09;5022841;28;19993;-93
2023/04/23 11:23:06;;;;;;;;;;;;;;;23.88;29.64;100999.16;5013356;28;19937;-94
2023/04/23 11:25:35;;;;;;;;;;;;;;;24.30;29.07;100998.94;5007018;28;20126;-93
2023/04/23 11:28:03;;;;;;;;;;;;;;;24.87;28.46;100989.88;5036103;28;19924;-95
2023/04/23 11:30:29;;;;;;;;;;;;;;;24.41;29.68;100998.06;5011280;28;19921;-93
2023/04/23 11:32:58;;;;;;;;;;;;;;;24.12;29.26;101005.47;5015975;28;19961;-90
2023/04/23 11:35:29;;;;;;;;;;;;;;;23.94;29.78;100993.53;5042022;22;19964;-91
2023/04/23 11:37:55;;;;;;;;;;;;;;;23.85;30.50;100996.91;5009981;28;19958;-93
2023/04/23 11:40:24;;;;;;;;;;;;;;;23.73;30.40;101002.38;4997410;28;19929;-89
2023/04/23 11:42:53;;;;;;;;;;;;;;;23.04;31.74;100999.34;4975840;28;20327;-93
2023/04/23 11:45:19;;;;;;;;;;;;;;;23.68;30.52;101002.25;5004616;28;20384;-92
2023/04/23 11:47:45;;;;;;;;;;;;;;;22.23;32.06;100998.78;4974970;28;19932;-93
2023/04/23 11:50:34;;;;;;;;;;;;;;;22.16;32.33;100996.09;4971415;28;19925;-92
2023/04/23 11:53:11;;;;;;;;;;;;;;;21.93;33.88;100999.53;4992041;28;19913;-91
2023/04/23 11:55:42;;;;;;;;;;;;;;;21.94;33.98;100995.75;5003710;28;19941;-92
2023/04/23 11:58:10;;;;;;;;;;;;;;;21.59;34.18;100996.31;4990844;28;20015;-92
2023/04/23 12:00:37;;;;;;;;;;;;;;;21.67;33.57;100995.19;4973144;28;19983;-93
2023/04/23 12:03:07;;;;;;;;;;;;;;;20.86;34.55;100994.16;4993805;28;19918;-92
2023/04/23 12:05:36;;;;;;;;;;;;;;;21.30;34.54;100995.06;4981135;28;20408;-91
2023/04/23 12:08:16;;;;;;;;;;;;;;;20.80;35.98;100990.41;4974643;28;19918;-94
2023/04/23 12:10:49;;;;;;;;;;;;;;;21.30;36.47;100989.59;4987397;28;19926;-92
2023/04/23 12:13:26;;;;;;;;;;;;;;;21.00;37.86;100990.28;4965175;28;19917;-91
2023/04/23 12:15:58;;;;;;;;;;;;;;;20.23;40.94;101000.38;4990372;28;19922;-92
2023/04/23 12:18:30;;;;;;;;;;;;;;;19.36;45.16;100991.50;4990856;28;19918;-93
2023/04/23 12:21:19;;;;;;;;;;;;;;;18.72;45.91;100988.31;4972826;28;19922;-91
2023/04/23 12:23:50;;;;;;;;;;;;;;;18.58;44.86;100986.59;4987001;28;19918;-91
2023/04/23 12:26:18;;;;;;;;;;;;;;;18.20;46.91;100978.94;4993112;28;19928;-91
2023/04/23 12:28:44;;;;;;;;;;;;;;;17.48;50.48;100980.19;4977486;28;20008;-90
2023/04/23 12:31:10;;;;;;;;;;;;;;;17.46;51.88;100988.53;4962360;28;20023;-92
2023/04/23 12:33:35;;;;;;;;;;;;;;;17.27;53.67;100972.94;4979677;28;19968;-91
2023/04/23 12:36:00;;;;;;;;;;;;;;;17.46;52.15;100974.97;4987739;28;19988;-89
2023/04/23 12:38:27;;;;;;;;;;;;;;;17.46;48.44;100972.25;5008253;28;19980;-92
2023/04/23 12:40:55;;;;;;;;;;;;;;;17.32;47.74;100970.47;4979739;28;19957;-92
2023/04/23 12:43:21;;;;;;;;;;;;;;;16.96;49.09;100966.00;4996665;28;20069;-91
2023/04/23 12:45:51;;;;;;;;;;;;;;;16.83;47.78;100972.19;5013595;28;19968;-90
2023/04/23 12:48:16;;;;;;;;;;;;;;;16.67;47.64;100973.25;4997225;28;20325;-91
2023/04/23 12:50:42;;;;;;;;;;;;;;;16.59;47.86;100965.19;4997208;28;20466;-93
2023/04/23 12:53:07;;;;;;;;;;;;;;;16.73;45.78;100965.34;4995162;28;19975;-92
2023/04/23 12:55:33;;;;;;;;;;;;;;;16.98;46.11;100969.38;4996058;28;19921;-92
2023/04/23 12:57:58;;;;;;;;;;;;;;;16.84;44.76;100962.97;4998320;28;19917;-92
2023/04/23 13:00:23;;;;;;;;;;;;;;;17.19;45.36;100964.97;4980775;28;19953;-93
2023/04/23 13:02:49;;;;;;;;;;;;;;;17.55;43.16;100961.22;4984651;28;20016;-91
2023/04/23 13:05:15;;;;;;;;;;;;;;;17.42;44.68;100962.81;5014631;28;19972;-93
2023/04/23 13:07:46;;;;;;;;;;;;;;;17.36;43.84;100960.06;4986680;28;20020;-90
2023/04/23 13:10:12;;;;;;;;;;;;;;;17.55;44.29;100953.06;4994246;28;20095;-90
2023/04/23 13:12:38;;;;;;;;;;;;;;;17.56;40.92;100949.28;4999067;28;19961;-93
2023/04/23 13:15:04;;;;;;;;;;;;;;;17.35;41.90;100942.91;4975713;28;20317;-89
2023/04/23 13:17:30;;;;;;;;;;;;;;;17.28;41.26;100948.31;4976292;28;19940;-90
2023/04/23 13:19:57;;;;;;;;;;;;;;;16.95;40.11;100948.03;4980342;28;20020;-90
2023/04/23 13:22:30;;;;;;;;;;;;;;;17.40;41.43;100945.03;4991069;28;19933;-91
2023/04/23 13:24:58;;;;;;;;;;;;;;;17.40;41.29;100945.03;4995644;28;19917;-92
2023/04/23 13:27:26;;;;;;;;;;;;;;;17.39;41.11;100937.91;4978741;28;19929;-92
2023/04/23 13:29:51;;;;;;;;;;;;;;;17.21;40.77;100941.16;4994056;28;20386;-91
2023/04/23 13:32:17;;;;;;;;;;;;;;;17.16;41.50;100938.16;4977890;28;19926;-91
2023/04/23 13:34:43;;;;;;;;;;;;;;;17.00;42.88;100942.88;4978231;28;20005;-92
2023/04/23 13:37:11;;;;;;;;;;;;;;;17.04;43.42;100937.84;4982505;28;19968;-90
2023/04/23 13:39:38;;;;;;;;;;;;;;;17.09;44.52;100947.13;4978812;28;20010;-90
2023/04/23 13:42:10;;;;;;;;;;;;;;;17.23;45.36;100947.19;4994492;28;19922;-92